sensor_id;sensor_type;location;lat;lon;timestamp;temperature;humidity
44894;DHT22;30625;52.206;21.030;2023-03-11T00:02:44;8.20;99.90
44894;DHT22;30625;52.206;21.030;2023-03-11T00:05:20;8.30;99.90
44894;DHT22;30625;52.206;21.030;2023-03-11T00:07:46;8.30;99.90
44894;DHT22;30625;52.206;21.030;2023-03-11T00:10:27;8.30;99.90
44894;DHT22;30625;52.206;21.030;2023-03-11T00:12:53;8.30;99.90
44894;DHT22;30625;52.206;21.030;2023-03-11T00:15:19;8.60;99.90
44894;DHT22;30625;52.206;21.030;2023-03-11T00:17:47;10.10;99.90
44894;DHT22;30625;52.206;21.030;2023-03-11T00:20:31;8.30;99.90
44894;DHT22;30625;52.206;21.030;2023-03-11T00:22:57;8.30;99.90
44894;DHT22;30625;52.206;21.030;2023-03-11T00:25:25;8.20;99.90
44894;DHT22;30625;52.206;21.030;2023-03-11T00:27:51;8.30;99.90
44894;DHT22;30625;52.206;21.030;2023-03-11T00:30:17;8.30;99.90
44894;DHT22;30625;52.206;21.030;2023-03-11T00:32:45;8.30;99.90
44894;DHT22;30625;52.206;21.030;2023-03-11T00:35:13;9.80;99.90
44894;DHT22;30625;52.206;21.030;2023-03-11T00:37:40;8.30;99.90
44894;DHT22;30625;52.206;21.030;2023-03-11T00:40:06;8.30;99.90
44894;DHT22;30625;52.206;21.030;2023-03-11T00:42:33;8.30;99.90
44894;DHT22;30625;52.206;21.030;2023-03-11T00:44:59;8.40;99.90
44894;DHT22;30625;52.206;21.030;2023-03-11T00:49:58;8.30;99.90
44894;DHT22;30625;52.206;21.030;2023-03-11T00:52:26;6.90;99.90
44894;DHT22;30625;52.206;21.030;2023-03-11T00:57:22;8.20;99.90
44894;DHT22;30625;52.206;21.030;2023-03-11T00:59:49;8.80;99.90
44894;DHT22;30625;52.206;21.030;2023-03-11T01:02:17;9.20;99.90
44894;DHT22;30625;52.206;21.030;2023-03-11T01:04:54;8.20;99.90
44894;DHT22;30625;52.206;21.030;2023-03-11T01:07:23;7.50;99.90
44894;DHT22;30625;52.206;21.030;2023-03-11T01:09:49;6.90;99.90
44894;DHT22;30625;52.206;21.030;2023-03-11T01:14:52;8.00;99.90
44894;DHT22;30625;52.206;21.030;2023-03-11T01:17:18;8.10;99.90
44894;DHT22;30625;52.206;21.030;2023-03-11T01:22:11;8.00;99.90
44894;DHT22;30625;52.206;21.030;2023-03-11T01:27:12;7.90;99.90
44894;DHT22;30625;52.206;21.030;2023-03-11T01:32:28;7.80;99.90
44894;DHT22;30625;52.206;21.030;2023-03-11T01:40:07;7.80;99.90
44894;DHT22;30625;52.206;21.030;2023-03-11T01:47:55;7.70;99.90
44894;DHT22;30625;52.206;21.030;2023-03-11T01:55:40;7.60;99.90
44894;DHT22;30625;52.206;21.030;2023-03-11T01:58:09;7.80;99.90
44894;DHT22;30625;52.206;21.030;2023-03-11T02:00:45;7.60;99.90
44894;DHT22;30625;52.206;21.030;2023-03-11T02:03:20;7.60;99.90
44894;DHT22;30625;52.206;21.030;2023-03-11T02:05:52;9.10;99.90
44894;DHT22;30625;52.206;21.030;2023-03-11T02:08:18;9.00;99.90
44894;DHT22;30625;52.206;21.030;2023-03-11T02:10:48;7.40;99.90
44894;DHT22;30625;52.206;21.030;2023-03-11T02:13:17;7.70;99.90
44894;DHT22;30625;52.206;21.030;2023-03-11T02:15:43;9.00;99.90
44894;DHT22;30625;52.206;21.030;2023-03-11T02:18:09;7.20;99.90
44894;DHT22;30625;52.206;21.030;2023-03-11T02:23:19;7.30;99.90
44894;DHT22;30625;52.206;21.030;2023-03-11T02:28:27;7.20;99.90
44894;DHT22;30625;52.206;21.030;2023-03-11T02:30:56;6.00;99.90
44894;DHT22;30625;52.206;21.030;2023-03-11T02:33:25;7.10;99.90
44894;DHT22;30625;52.206;21.030;2023-03-11T02:38:32;7.10;99.90
44894;DHT22;30625;52.206;21.030;2023-03-11T02:40:59;7.20;99.90
44894;DHT22;30625;52.206;21.030;2023-03-11T02:45:55;7.20;99.90
44894;DHT22;30625;52.206;21.030;2023-03-11T02:48:22;5.80;99.90
44894;DHT22;30625;52.206;21.030;2023-03-11T02:50:48;8.20;99.90
44894;DHT22;30625;52.206;21.030;2023-03-11T02:53:14;7.10;99.90
44894;DHT22;30625;52.206;21.030;2023-03-11T02:55:40;8.90;99.90
44894;DHT22;30625;52.206;21.030;2023-03-11T02:58:06;5.90;99.90
44894;DHT22;30625;52.206;21.030;2023-03-11T03:03:00;6.90;99.90
44894;DHT22;30625;52.206;21.030;2023-03-11T03:05:27;6.40;99.90
44894;DHT22;30625;52.206;21.030;2023-03-11T03:07:55;7.00;99.90
44894;DHT22;30625;52.206;21.030;2023-03-11T03:12:56;6.80;99.90
44894;DHT22;30625;52.206;21.030;2023-03-11T03:15:22;7.70;99.90
44894;DHT22;30625;52.206;21.030;2023-03-11T03:17:48;7.50;99.90
44894;DHT22;30625;52.206;21.030;2023-03-11T03:20:17;8.40;99.90
44894;DHT22;30625;52.206;21.030;2023-03-11T03:27:46;6.70;99.90
44894;DHT22;30625;52.206;21.030;2023-03-11T03:30:12;4.40;99.90
44894;DHT22;30625;52.206;21.030;2023-03-11T03:32:41;6.60;99.90
44894;DHT22;30625;52.206;21.030;2023-03-11T03:35:10;6.70;99.90
44894;DHT22;30625;52.206;21.030;2023-03-11T03:40:05;6.70;99.90
44894;DHT22;30625;52.206;21.030;2023-03-11T03:45:16;6.60;99.90
44894;DHT22;30625;52.206;21.030;2023-03-11T03:47:42;6.70;99.90
44894;DHT22;30625;52.206;21.030;2023-03-11T03:52:44;6.70;99.90
44894;DHT22;30625;52.206;21.030;2023-03-11T03:55:13;6.20;99.90
44894;DHT22;30625;52.206;21.030;2023-03-11T03:57:41;6.80;99.90
44894;DHT22;30625;52.206;21.030;2023-03-11T04:00:11;6.60;99.90
44894;DHT22;30625;52.206;21.030;2023-03-11T04:02:43;5.80;99.90
44894;DHT22;30625;52.206;21.030;2023-03-11T04:05:12;7.90;99.90
44894;DHT22;30625;52.206;21.030;2023-03-11T04:07:40;6.90;99.90
44894;DHT22;30625;52.206;21.030;2023-03-11T04:10:06;4.90;99.90
44894;DHT22;30625;52.206;21.030;2023-03-11T04:15:13;6.80;99.90
44894;DHT22;30625;52.206;21.030;2023-03-11T04:17:42;7.00;99.90
44894;DHT22;30625;52.206;21.030;2023-03-11T04:20:08;7.00;99.90
44894;DHT22;30625;52.206;21.030;2023-03-11T04:22:36;6.90;99.90
44894;DHT22;30625;52.206;21.030;2023-03-11T04:25:03;8.70;99.90
44894;DHT22;30625;52.206;21.030;2023-03-11T04:27:31;7.90;99.90
44894;DHT22;30625;52.206;21.030;2023-03-11T04:30:03;8.90;99.90
44894;DHT22;30625;52.206;21.030;2023-03-11T04:32:29;6.80;99.90
44894;DHT22;30625;52.206;21.030;2023-03-11T04:34:56;6.90;99.90
44894;DHT22;30625;52.206;21.030;2023-03-11T04:39:50;6.80;99.90
44894;DHT22;30625;52.206;21.030;2023-03-11T04:42:18;6.40;99.90
44894;DHT22;30625;52.206;21.030;2023-03-11T04:44:43;6.80;99.90
44894;DHT22;30625;52.206;21.030;2023-03-11T04:47:10;6.90;99.90
44894;DHT22;30625;52.206;21.030;2023-03-11T04:49:39;6.90;99.90
44894;DHT22;30625;52.206;21.030;2023-03-11T04:52:05;6.80;99.90
44894;DHT22;30625;52.206;21.030;2023-03-11T04:54:31;8.50;99.90
44894;DHT22;30625;52.206;21.030;2023-03-11T04:56:57;8.10;99.90
44894;DHT22;30625;52.206;21.030;2023-03-11T04:59:29;6.40;99.90
44894;DHT22;30625;52.206;21.030;2023-03-11T05:01:55;6.90;99.90
44894;DHT22;30625;52.206;21.030;2023-03-11T05:04:26;8.70;99.90
44894;DHT22;30625;52.206;21.030;2023-03-11T05:06:55;7.10;99.90
44894;DHT22;30625;52.206;21.030;2023-03-11T05:09:24;5.50;99.90
44894;DHT22;30625;52.206;21.030;2023-03-11T05:11:50;7.10;99.90
44894;DHT22;30625;52.206;21.030;2023-03-11T05:27:12;6.90;99.90
44894;DHT22;30625;52.206;21.030;2023-03-11T05:29:41;6.30;99.90
44894;DHT22;30625;52.206;21.030;2023-03-11T05:32:07;6.40;99.90
44894;DHT22;30625;52.206;21.030;2023-03-11T05:34:36;6.50;99.90
44894;DHT22;30625;52.206;21.030;2023-03-11T05:39:40;6.80;99.90
44894;DHT22;30625;52.206;21.030;2023-03-11T05:42:10;6.80;99.90
44894;DHT22;30625;52.206;21.030;2023-03-11T05:44:39;6.90;99.90
44894;DHT22;30625;52.206;21.030;2023-03-11T05:49:41;7.00;99.90
44894;DHT22;30625;52.206;21.030;2023-03-11T05:52:07;6.20;99.90
44894;DHT22;30625;52.206;21.030;2023-03-11T05:54:34;6.90;99.90
44894;DHT22;30625;52.206;21.030;2023-03-11T05:57:00;6.50;99.90
44894;DHT22;30625;52.206;21.030;2023-03-11T05:59:26;7.10;99.90
44894;DHT22;30625;52.206;21.030;2023-03-11T06:01:52;7.00;99.90
44894;DHT22;30625;52.206;21.030;2023-03-11T06:04:18;8.30;99.90
44894;DHT22;30625;52.206;21.030;2023-03-11T06:06:44;8.90;99.90
44894;DHT22;30625;52.206;21.030;2023-03-11T06:14:23;7.30;99.90
44894;DHT22;30625;52.206;21.030;2023-03-11T06:16:59;8.30;99.90
44894;DHT22;30625;52.206;21.030;2023-03-11T06:21:58;7.30;99.90
44894;DHT22;30625;52.206;21.030;2023-03-11T06:24:24;10.30;99.90
44894;DHT22;30625;52.206;21.030;2023-03-11T06:26:52;7.70;99.90
44894;DHT22;30625;52.206;21.030;2023-03-11T06:29:21;7.50;99.90
44894;DHT22;30625;52.206;21.030;2023-03-11T06:31:49;10.60;99.90
44894;DHT22;30625;52.206;21.030;2023-03-11T06:34:15;5.70;99.90
44894;DHT22;30625;52.206;21.030;2023-03-11T06:46:53;7.50;99.90
44894;DHT22;30625;52.206;21.030;2023-03-11T06:49:19;8.30;99.90
44894;DHT22;30625;52.206;21.030;2023-03-11T06:51:44;7.60;99.90
44894;DHT22;30625;52.206;21.030;2023-03-11T06:54:10;7.70;99.90
44894;DHT22;30625;52.206;21.030;2023-03-11T06:56:36;7.70;99.90
44894;DHT22;30625;52.206;21.030;2023-03-11T06:59:01;7.80;99.90
44894;DHT22;30625;52.206;21.030;2023-03-11T07:01:27;7.80;99.90
44894;DHT22;30625;52.206;21.030;2023-03-11T07:03:53;8.00;99.90
44894;DHT22;30625;52.206;21.030;2023-03-11T07:06:24;8.00;99.90
44894;DHT22;30625;52.206;21.030;2023-03-11T07:08:51;8.10;99.90
44894;DHT22;30625;52.206;21.030;2023-03-11T07:11:20;8.20;99.90
44894;DHT22;30625;52.206;21.030;2023-03-11T07:13:45;8.20;99.90
44894;DHT22;30625;52.206;21.030;2023-03-11T07:16:13;8.20;99.90
44894;DHT22;30625;52.206;21.030;2023-03-11T07:18:41;8.20;99.90
44894;DHT22;30625;52.206;21.030;2023-03-11T07:21:07;8.20;99.90
44894;DHT22;30625;52.206;21.030;2023-03-11T07:23:34;9.80;99.90
44894;DHT22;30625;52.206;21.030;2023-03-11T07:26:00;9.10;99.90
44894;DHT22;30625;52.206;21.030;2023-03-11T07:28:27;8.20;99.90
44894;DHT22;30625;52.206;21.030;2023-03-11T07:30:53;8.20;99.90
44894;DHT22;30625;52.206;21.030;2023-03-11T07:33:20;8.10;99.90
44894;DHT22;30625;52.206;21.030;2023-03-11T07:35:48;9.10;99.90
44894;DHT22;30625;52.206;21.030;2023-03-11T07:38:15;8.10;99.90
44894;DHT22;30625;52.206;21.030;2023-03-11T07:40:42;8.90;99.90
44894;DHT22;30625;52.206;21.030;2023-03-11T07:43:07;8.20;99.90
44894;DHT22;30625;52.206;21.030;2023-03-11T07:45:33;8.20;99.90
44894;DHT22;30625;52.206;21.030;2023-03-11T07:47:58;8.20;99.90
44894;DHT22;30625;52.206;21.030;2023-03-11T07:50:24;8.20;99.90
44894;DHT22;30625;52.206;21.030;2023-03-11T07:52:50;8.20;99.90
44894;DHT22;30625;52.206;21.030;2023-03-11T07:55:15;8.20;99.90
44894;DHT22;30625;52.206;21.030;2023-03-11T07:57:41;8.20;99.90
44894;DHT22;30625;52.206;21.030;2023-03-11T08:00:08;8.30;99.90
44894;DHT22;30625;52.206;21.030;2023-03-11T08:02:34;8.20;99.90
44894;DHT22;30625;52.206;21.030;2023-03-11T08:05:00;8.20;99.90
44894;DHT22;30625;52.206;21.030;2023-03-11T08:07:25;8.60;99.90
44894;DHT22;30625;52.206;21.030;2023-03-11T08:09:51;8.30;99.90
44894;DHT22;30625;52.206;21.030;2023-03-11T08:12:17;8.30;99.90
44894;DHT22;30625;52.206;21.030;2023-03-11T08:14:42;8.20;99.90
44894;DHT22;30625;52.206;21.030;2023-03-11T08:17:08;8.20;99.90
44894;DHT22;30625;52.206;21.030;2023-03-11T08:19:34;8.20;99.90
44894;DHT22;30625;52.206;21.030;2023-03-11T08:22:01;8.20;99.90
44894;DHT22;30625;52.206;21.030;2023-03-11T08:24:27;8.10;99.90
44894;DHT22;30625;52.206;21.030;2023-03-11T08:26:53;9.80;99.90
44894;DHT22;30625;52.206;21.030;2023-03-11T08:29:20;8.20;99.90
44894;DHT22;30625;52.206;21.030;2023-03-11T08:31:45;8.20;99.90
44894;DHT22;30625;52.206;21.030;2023-03-11T08:34:11;8.20;99.90
44894;DHT22;30625;52.206;21.030;2023-03-11T08:36:38;8.20;99.90
44894;DHT22;30625;52.206;21.030;2023-03-11T08:39:03;9.10;99.90
44894;DHT22;30625;52.206;21.030;2023-03-11T08:41:29;8.10;99.90
44894;DHT22;30625;52.206;21.030;2023-03-11T08:43:55;8.10;99.90
44894;DHT22;30625;52.206;21.030;2023-03-11T08:46:27;9.50;99.90
44894;DHT22;30625;52.206;21.030;2023-03-11T08:48:54;10.10;99.90
44894;DHT22;30625;52.206;21.030;2023-03-11T08:51:21;8.20;99.90
44894;DHT22;30625;52.206;21.030;2023-03-11T08:53:47;8.10;99.90
44894;DHT22;30625;52.206;21.030;2023-03-11T08:56:12;8.00;99.90
44894;DHT22;30625;52.206;21.030;2023-03-11T08:58:38;8.00;99.90
44894;DHT22;30625;52.206;21.030;2023-03-11T09:01:05;8.00;99.90
44894;DHT22;30625;52.206;21.030;2023-03-11T09:03:32;8.00;99.90
44894;DHT22;30625;52.206;21.030;2023-03-11T09:05:59;7.90;99.90
44894;DHT22;30625;52.206;21.030;2023-03-11T09:08:26;7.90;99.90
44894;DHT22;30625;52.206;21.030;2023-03-11T09:10:52;8.00;99.90
44894;DHT22;30625;52.206;21.030;2023-03-11T09:13:17;7.90;99.90
44894;DHT22;30625;52.206;21.030;2023-03-11T09:15:43;7.90;99.90
44894;DHT22;30625;52.206;21.030;2023-03-11T09:18:13;9.10;99.90
44894;DHT22;30625;52.206;21.030;2023-03-11T09:20:39;7.80;99.90
44894;DHT22;30625;52.206;21.030;2023-03-11T09:23:06;9.10;99.90
44894;DHT22;30625;52.206;21.030;2023-03-11T09:28:02;7.80;99.90
44894;DHT22;30625;52.206;21.030;2023-03-11T09:30:28;7.80;99.90
44894;DHT22;30625;52.206;21.030;2023-03-11T09:32:54;7.80;99.90
44894;DHT22;30625;52.206;21.030;2023-03-11T09:35:19;7.70;99.90
44894;DHT22;30625;52.206;21.030;2023-03-11T09:37:45;7.70;99.90
44894;DHT22;30625;52.206;21.030;2023-03-11T09:40:16;7.70;99.90
44894;DHT22;30625;52.206;21.030;2023-03-11T09:42:55;7.70;99.90
44894;DHT22;30625;52.206;21.030;2023-03-11T09:45:27;7.70;99.90
44894;DHT22;30625;52.206;21.030;2023-03-11T09:48:18;7.60;99.90
44894;DHT22;30625;52.206;21.030;2023-03-11T09:51:09;7.60;99.90
44894;DHT22;30625;52.206;21.030;2023-03-11T09:53:41;7.50;99.90
44894;DHT22;30625;52.206;21.030;2023-03-11T09:56:12;7.30;99.90
44894;DHT22;30625;52.206;21.030;2023-03-11T09:58:47;7.10;99.90
44894;DHT22;30625;52.206;21.030;2023-03-11T10:01:30;6.90;99.90
44894;DHT22;30625;52.206;21.030;2023-03-11T10:04:13;6.70;99.90
44894;DHT22;30625;52.206;21.030;2023-03-11T10:06:40;6.50;99.90
44894;DHT22;30625;52.206;21.030;2023-03-11T10:15:05;5.90;99.90
44894;DHT22;30625;52.206;21.030;2023-03-11T10:18:02;5.80;99.90
44894;DHT22;30625;52.206;21.030;2023-03-11T10:21:13;5.70;99.90
44894;DHT22;30625;52.206;21.030;2023-03-11T10:26:40;5.60;99.90
44894;DHT22;30625;52.206;21.030;2023-03-11T10:31:43;5.40;99.90
44894;DHT22;30625;52.206;21.030;2023-03-11T10:34:19;5.30;99.90
44894;DHT22;30625;52.206;21.030;2023-03-11T10:36:53;5.20;99.90
44894;DHT22;30625;52.206;21.030;2023-03-11T10:42:13;5.20;99.90
44894;DHT22;30625;52.206;21.030;2023-03-11T10:44:41;5.00;99.90
44894;DHT22;30625;52.206;21.030;2023-03-11T10:47:22;6.20;99.90
44894;DHT22;30625;52.206;21.030;2023-03-11T10:49:51;4.90;99.90
44894;DHT22;30625;52.206;21.030;2023-03-11T10:52:18;4.90;99.90
44894;DHT22;30625;52.206;21.030;2023-03-11T10:54:50;4.80;99.90
44894;DHT22;30625;52.206;21.030;2023-03-11T10:57:26;4.70;99.90
44894;DHT22;30625;52.206;21.030;2023-03-11T10:59:55;6.30;99.90
44894;DHT22;30625;52.206;21.030;2023-03-11T11:02:23;4.40;99.90
44894;DHT22;30625;52.206;21.030;2023-03-11T11:07:34;4.20;99.90
44894;DHT22;30625;52.206;21.030;2023-03-11T11:10:22;4.20;99.90
44894;DHT22;30625;52.206;21.030;2023-03-11T11:15:42;4.00;99.90
44894;DHT22;30625;52.206;21.030;2023-03-11T11:18:28;4.00;99.90
44894;DHT22;30625;52.206;21.030;2023-03-11T11:21:00;4.00;99.90
44894;DHT22;30625;52.206;21.030;2023-03-11T11:23:42;4.00;99.90
44894;DHT22;30625;52.206;21.030;2023-03-11T11:26:20;3.90;99.90
44894;DHT22;30625;52.206;21.030;2023-03-11T11:31:43;4.00;99.90
44894;DHT22;30625;52.206;21.030;2023-03-11T11:34:39;3.90;99.90
44894;DHT22;30625;52.206;21.030;2023-03-11T11:37:05;3.90;99.90
44894;DHT22;30625;52.206;21.030;2023-03-11T11:40:02;3.90;99.90
44894;DHT22;30625;52.206;21.030;2023-03-11T11:42:37;3.80;99.90
44894;DHT22;30625;52.206;21.030;2023-03-11T11:47:36;3.80;99.90
44894;DHT22;30625;52.206;21.030;2023-03-11T11:50:10;3.80;99.90
44894;DHT22;30625;52.206;21.030;2023-03-11T11:52:46;3.90;99.90
44894;DHT22;30625;52.206;21.030;2023-03-11T11:55:20;3.80;99.90
44894;DHT22;30625;52.206;21.030;2023-03-11T11:57:50;3.80;99.90
44894;DHT22;30625;52.206;21.030;2023-03-11T12:00:21;5.20;99.90
44894;DHT22;30625;52.206;21.030;2023-03-11T12:03:19;3.80;99.90
44894;DHT22;30625;52.206;21.030;2023-03-11T12:05:57;3.80;99.90
44894;DHT22;30625;52.206;21.030;2023-03-11T12:11:23;3.80;99.90
44894;DHT22;30625;52.206;21.030;2023-03-11T12:16:31;2.20;99.90
44894;DHT22;30625;52.206;21.030;2023-03-11T12:24:40;3.50;99.90
44894;DHT22;30625;52.206;21.030;2023-03-11T12:30:36;3.30;99.90
44894;DHT22;30625;52.206;21.030;2023-03-11T12:33:17;3.10;99.90
44894;DHT22;30625;52.206;21.030;2023-03-11T12:35:55;4.00;99.90
44894;DHT22;30625;52.206;21.030;2023-03-11T12:38:28;2.90;99.90
44894;DHT22;30625;52.206;21.030;2023-03-11T12:46:04;2.80;99.90
44894;DHT22;30625;52.206;21.030;2023-03-11T12:53:52;2.80;99.90
44894;DHT22;30625;52.206;21.030;2023-03-11T12:56:39;2.80;99.90
44894;DHT22;30625;52.206;21.030;2023-03-11T13:05:05;2.40;99.90
44894;DHT22;30625;52.206;21.030;2023-03-11T13:08:07;2.50;99.90
44894;DHT22;30625;52.206;21.030;2023-03-11T13:10:42;2.40;99.90
44894;DHT22;30625;52.206;21.030;2023-03-11T13:13:39;2.40;99.90
44894;DHT22;30625;52.206;21.030;2023-03-11T13:18:47;2.50;99.90
44894;DHT22;30625;52.206;21.030;2023-03-11T13:24:13;2.50;99.90
44894;DHT22;30625;52.206;21.030;2023-03-11T13:34:53;2.30;99.90
44894;DHT22;30625;52.206;21.030;2023-03-11T13:40:25;2.00;99.90
44894;DHT22;30625;52.206;21.030;2023-03-11T13:42:56;3.20;99.90
44894;DHT22;30625;52.206;21.030;2023-03-11T13:45:29;1.80;99.90
44894;DHT22;30625;52.206;21.030;2023-03-11T13:48:11;1.70;99.90
44894;DHT22;30625;52.206;21.030;2023-03-11T13:50:43;1.60;99.90
44894;DHT22;30625;52.206;21.030;2023-03-11T13:53:32;1.60;99.90
44894;DHT22;30625;52.206;21.030;2023-03-11T13:55:59;1.70;99.90
44894;DHT22;30625;52.206;21.030;2023-03-11T13:58:26;1.50;99.90
44894;DHT22;30625;52.206;21.030;2023-03-11T14:00:57;3.30;99.90
44894;DHT22;30625;52.206;21.030;2023-03-11T14:03:25;1.80;99.90
44894;DHT22;30625;52.206;21.030;2023-03-11T14:06:06;1.40;99.90
44894;DHT22;30625;52.206;21.030;2023-03-11T14:08:37;1.40;99.90
44894;DHT22;30625;52.206;21.030;2023-03-11T14:11:15;1.40;99.90
44894;DHT22;30625;52.206;21.030;2023-03-11T14:18:41;1.50;99.90
44894;DHT22;30625;52.206;21.030;2023-03-11T14:21:18;1.50;99.90
44894;DHT22;30625;52.206;21.030;2023-03-11T14:23:50;1.50;99.90
44894;DHT22;30625;52.206;21.030;2023-03-11T14:26:26;1.50;99.90
44894;DHT22;30625;52.206;21.030;2023-03-11T14:28:55;1.60;99.90
44894;DHT22;30625;52.206;21.030;2023-03-11T14:31:43;1.60;99.90
44894;DHT22;30625;52.206;21.030;2023-03-11T14:34:23;1.70;99.90
44894;DHT22;30625;52.206;21.030;2023-03-11T14:36:57;1.60;99.90
44894;DHT22;30625;52.206;21.030;2023-03-11T14:39:29;1.60;99.90
44894;DHT22;30625;52.206;21.030;2023-03-11T14:42:23;1.60;99.90
44894;DHT22;30625;52.206;21.030;2023-03-11T14:45:11;1.60;99.90
44894;DHT22;30625;52.206;21.030;2023-03-11T14:50:52;1.50;99.90
44894;DHT22;30625;52.206;21.030;2023-03-11T14:55:57;1.50;99.90
44894;DHT22;30625;52.206;21.030;2023-03-11T14:58:33;1.60;99.90
44894;DHT22;30625;52.206;21.030;2023-03-11T15:01:13;2.70;99.90
44894;DHT22;30625;52.206;21.030;2023-03-11T15:04:36;1.70;99.90
44894;DHT22;30625;52.206;21.030;2023-03-11T15:06:44;1.70;99.90
44894;DHT22;30625;52.206;21.030;2023-03-11T15:09:14;1.70;99.90
44894;DHT22;30625;52.206;21.030;2023-03-11T15:11:48;1.70;99.90
44894;DHT22;30625;52.206;21.030;2023-03-11T15:16:46;1.70;99.90
44894;DHT22;30625;52.206;21.030;2023-03-11T15:21:54;1.70;99.90
44894;DHT22;30625;52.206;21.030;2023-03-11T15:24:31;1.70;99.90
44894;DHT22;30625;52.206;21.030;2023-03-11T15:29:25;1.70;99.90
44894;DHT22;30625;52.206;21.030;2023-03-11T15:31:51;1.70;99.90
44894;DHT22;30625;52.206;21.030;2023-03-11T15:45:20;3.30;99.90
44894;DHT22;30625;52.206;21.030;2023-03-11T15:47:21;1.70;99.90
44894;DHT22;30625;52.206;21.030;2023-03-11T15:49:48;1.70;99.90
44894;DHT22;30625;52.206;21.030;2023-03-11T15:52:15;1.70;99.90
44894;DHT22;30625;52.206;21.030;2023-03-11T15:54:41;1.70;99.90
44894;DHT22;30625;52.206;21.030;2023-03-11T15:57:08;1.80;99.90
44894;DHT22;30625;52.206;21.030;2023-03-11T15:59:36;1.80;99.90
44894;DHT22;30625;52.206;21.030;2023-03-11T16:02:02;1.70;99.90
44894;DHT22;30625;52.206;21.030;2023-03-11T16:04:28;1.80;99.90
44894;DHT22;30625;52.206;21.030;2023-03-11T16:06:54;1.70;99.90
44894;DHT22;30625;52.206;21.030;2023-03-11T16:09:20;1.70;99.90
44894;DHT22;30625;52.206;21.030;2023-03-11T16:11:46;1.70;99.90
44894;DHT22;30625;52.206;21.030;2023-03-11T16:14:17;1.70;99.90
44894;DHT22;30625;52.206;21.030;2023-03-11T16:16:43;1.70;99.90
44894;DHT22;30625;52.206;21.030;2023-03-11T16:19:09;1.70;99.90
44894;DHT22;30625;52.206;21.030;2023-03-11T16:21:36;1.70;99.90
44894;DHT22;30625;52.206;21.030;2023-03-11T16:24:04;1.70;99.90
44894;DHT22;30625;52.206;21.030;2023-03-11T16:26:30;1.70;99.90
44894;DHT22;30625;52.206;21.030;2023-03-11T16:28:58;1.70;99.90
44894;DHT22;30625;52.206;21.030;2023-03-11T16:31:23;1.80;99.90
44894;DHT22;30625;52.206;21.030;2023-03-11T16:33:49;1.80;99.90
44894;DHT22;30625;52.206;21.030;2023-03-11T16:36:15;2.00;99.90
44894;DHT22;30625;52.206;21.030;2023-03-11T16:38:46;1.80;99.90
44894;DHT22;30625;52.206;21.030;2023-03-11T16:41:12;1.80;99.90
44894;DHT22;30625;52.206;21.030;2023-03-11T16:43:37;1.80;99.90
44894;DHT22;30625;52.206;21.030;2023-03-11T16:46:03;1.80;99.90
44894;DHT22;30625;52.206;21.030;2023-03-11T16:48:29;1.80;99.90
44894;DHT22;30625;52.206;21.030;2023-03-11T16:50:55;1.70;99.90
44894;DHT22;30625;52.206;21.030;2023-03-11T16:53:20;2.60;99.90
44894;DHT22;30625;52.206;21.030;2023-03-11T16:55:46;1.70;99.90
44894;DHT22;30625;52.206;21.030;2023-03-11T16:58:14;1.70;99.90
44894;DHT22;30625;52.206;21.030;2023-03-11T17:00:41;1.70;99.90
44894;DHT22;30625;52.206;21.030;2023-03-11T17:03:11;1.70;99.90
44894;DHT22;30625;52.206;21.030;2023-03-11T17:05:39;1.70;99.90
44894;DHT22;30625;52.206;21.030;2023-03-11T17:08:05;1.70;99.90
44894;DHT22;30625;52.206;21.030;2023-03-11T17:10:36;1.70;99.90
44894;DHT22;30625;52.206;21.030;2023-03-11T17:13:03;1.60;99.90
44894;DHT22;30625;52.206;21.030;2023-03-11T17:15:29;1.70;99.90
44894;DHT22;30625;52.206;21.030;2023-03-11T17:17:55;1.70;99.90
44894;DHT22;30625;52.206;21.030;2023-03-11T17:20:20;1.70;99.90
44894;DHT22;30625;52.206;21.030;2023-03-11T17:22:49;1.70;99.90
44894;DHT22;30625;52.206;21.030;2023-03-11T17:25:15;1.70;99.90
44894;DHT22;30625;52.206;21.030;2023-03-11T17:27:43;1.70;99.90
44894;DHT22;30625;52.206;21.030;2023-03-11T17:30:11;1.60;99.90
44894;DHT22;30625;52.206;21.030;2023-03-11T17:32:37;0.90;99.90
44894;DHT22;30625;52.206;21.030;2023-03-11T17:35:03;1.60;99.90
44894;DHT22;30625;52.206;21.030;2023-03-11T17:37:29;1.60;99.90
44894;DHT22;30625;52.206;21.030;2023-03-11T17:39:55;1.60;99.90
44894;DHT22;30625;52.206;21.030;2023-03-11T17:42:21;1.60;99.90
44894;DHT22;30625;52.206;21.030;2023-03-11T17:44:46;1.70;99.90
44894;DHT22;30625;52.206;21.030;2023-03-11T17:47:12;3.10;99.90
44894;DHT22;30625;52.206;21.030;2023-03-11T17:49:38;1.70;99.90
44894;DHT22;30625;52.206;21.030;2023-03-11T17:52:04;2.80;99.90
44894;DHT22;30625;52.206;21.030;2023-03-11T17:54:29;2.60;99.90
44894;DHT22;30625;52.206;21.030;2023-03-11T17:56:55;2.70;99.90
44894;DHT22;30625;52.206;21.030;2023-03-11T17:59:23;1.60;99.90
44894;DHT22;30625;52.206;21.030;2023-03-11T18:01:48;1.60;99.90
44894;DHT22;30625;52.206;21.030;2023-03-11T18:04:14;1.60;99.90
44894;DHT22;30625;52.206;21.030;2023-03-11T18:06:40;1.60;99.90
44894;DHT22;30625;52.206;21.030;2023-03-11T18:09:06;1.60;99.90
44894;DHT22;30625;52.206;21.030;2023-03-11T18:11:31;1.60;99.90
44894;DHT22;30625;52.206;21.030;2023-03-11T18:13:57;2.80;99.90
44894;DHT22;30625;52.206;21.030;2023-03-11T18:16:25;2.40;99.90
44894;DHT22;30625;52.206;21.030;2023-03-11T18:18:52;1.90;99.90
44894;DHT22;30625;52.206;21.030;2023-03-11T18:21:21;1.50;99.90
44894;DHT22;30625;52.206;21.030;2023-03-11T18:23:47;1.50;99.90
44894;DHT22;30625;52.206;21.030;2023-03-11T18:26:16;1.60;99.90
44894;DHT22;30625;52.206;21.030;2023-03-11T18:28:42;1.50;99.90
44894;DHT22;30625;52.206;21.030;2023-03-11T18:31:11;1.50;99.90
44894;DHT22;30625;52.206;21.030;2023-03-11T18:33:38;1.50;99.90
44894;DHT22;30625;52.206;21.030;2023-03-11T18:38:37;1.40;99.90
44894;DHT22;30625;52.206;21.030;2023-03-11T18:41:02;1.40;99.90
44894;DHT22;30625;52.206;21.030;2023-03-11T18:43:28;1.40;99.90
44894;DHT22;30625;52.206;21.030;2023-03-11T18:45:53;1.40;99.90
44894;DHT22;30625;52.206;21.030;2023-03-11T18:48:19;1.40;99.90
44894;DHT22;30625;52.206;21.030;2023-03-11T18:50:52;1.30;99.90
44894;DHT22;30625;52.206;21.030;2023-03-11T18:53:18;1.30;99.90
44894;DHT22;30625;52.206;21.030;2023-03-11T18:55:46;1.40;99.90
44894;DHT22;30625;52.206;21.030;2023-03-11T18:58:13;1.30;99.90
44894;DHT22;30625;52.206;21.030;2023-03-11T19:00:38;1.30;99.90
44894;DHT22;30625;52.206;21.030;2023-03-11T19:03:04;1.20;99.90
44894;DHT22;30625;52.206;21.030;2023-03-11T19:05:31;1.40;99.90
44894;DHT22;30625;52.206;21.030;2023-03-11T19:07:57;1.20;99.90
44894;DHT22;30625;52.206;21.030;2023-03-11T19:10:22;2.50;99.90
44894;DHT22;30625;52.206;21.030;2023-03-11T19:12:48;1.20;99.90